Time;durP1;ratioP1;P1;durP2;ratioP2;P2;SDS_P1;SDS_P2;PMS_P1;PMS_P2;Temp;Humidity;BMP_temperature;BMP_pressure;BME280_temperature;BME280_humidity;BME280_pressure;Samples;Min_cycle;Max_cycle;Signal;HPM_P1;HPM_P2
2022/02/23 08:52:00;;;;;;;;;;;;;;;;;;6128136;23;20092;-84
2022/02/23 09:55:56;;;;;;;3.97;2.60;;;;;;;;;;6176621;23;20013;-84
2022/02/23 09:58:25;;;;;;;5.38;2.20;;;;;;;;;;6187642;23;20015;-87
2022/02/23 10:00:54;;;;;;;2.70;2.03;;;;;;;;;;6161338;23;20005;-86
2022/02/23 10:03:20;;;;;;;3.05;1.95;;;;;;;;;;6187333;23;20058;-86
2022/02/23 10:05:46;;;;;;;2.88;2.10;;;;;;;;;;6187646;23;20008;-86
2022/02/23 10:08:12;;;;;;;2.40;2.10;;;;;;;;;;6187619;23;20535;-86
2022/02/23 10:10:47;;;;;;;2.92;2.17;;;;;;;;;;6161141;23;20028;-86
2022/02/23 10:13:17;;;;;;;1.90;1.50;;;;;;;;;;6187259;23;20004;-86
2022/02/23 10:15:45;;;;;;;3.80;2.10;;;;;;;;;;6161190;23;20067;-83
2022/02/23 10:18:15;;;;;;;3.95;2.35;;;;;;;;;;6187461;23;20021;-85
2022/02/23 10:20:42;;;;;;;2.75;2.10;;;;;;;;;;6187488;23;20008;-87
2022/02/23 10:23:19;;;;;;;3.63;2.10;;;;;;;;;;6160658;23;20001;-87
2022/02/23 10:26:00;;;;;;;3.35;2.20;;;;;;;;;;6160995;23;20005;-87
2022/02/23 10:28:27;;;;;;;4.85;2.20;;;;;;;;;;6161095;23;20031;-82
2022/02/23 10:31:15;;;;;;;2.70;2.33;;;;;;;;;;6187177;23;20001;-83
2022/02/23 10:33:42;;;;;;;5.78;2.28;;;;;;;;;;6160915;23;20328;-80
2022/02/23 10:36:16;;;;;;;3.13;2.20;;;;;;;;;;6187169;23;20001;-79
2022/02/23 10:38:51;;;;;;;2.95;2.15;;;;;;;;;;6186711;23;20005;-79
2022/02/23 10:41:35;;;;;;;3.15;2.28;;;;;;;;;;6187160;23;19997;-79
2022/02/23 10:44:04;;;;;;;3.80;2.90;;;;;;;;;;6160812;23;20009;-78
2022/02/23 10:46:29;;;;;;;2.90;2.60;;;;;;;;;;6160929;23;20047;-92
2022/02/23 10:48:59;;;;;;;3.13;2.60;;;;;;;;;;6187530;23;20076;-90
2022/02/23 10:51:32;;;;;;;;;;;;;;;;;;6164641;23;20013;-96
2022/02/23 10:54:17;;;;;;;2.97;2.33;;;;;;;;;;6174406;23;19901;-96
2022/02/23 10:56:46;;;;;;;3.25;2.47;;;;;;;;;;6129644;23;20006;-93
2022/02/23 10:59:17;;;;;;;4.38;2.20;;;;;;;;;;6127690;23;20014;-95
2022/02/23 11:01:45;;;;;;;2.25;2.05;;;;;;;;;;6123247;23;20007;-95
2022/02/23 11:04:11;;;;;;;3.72;2.10;;;;;;;;;;6098805;23;20013;-94
2022/02/23 11:06:39;;;;;;;3.90;2.08;;;;;;;;;;6098828;23;20018;-92
2022/02/23 11:09:06;;;;;;;3.35;2.00;;;;;;;;;;6099015;23;20003;-95
2022/02/23 11:11:33;;;;;;;2.30;1.80;;;;;;;;;;6122907;23;20006;-93
2022/02/23 11:13:59;;;;;;;5.03;2.88;;;;;;;;;;6099481;23;20038;-93
2022/02/23 11:16:26;;;;;;;4.15;1.90;;;;;;;;;;6098468;23;20006;-93
2022/02/23 11:18:54;;;;;;;2.92;2.10;;;;;;;;;;6098351;23;20042;-94
2022/02/23 11:21:21;;;;;;;4.32;2.22;;;;;;;;;;6105390;23;20025;-94
2022/02/23 11:23:52;;;;;;;2.72;2.42;;;;;;;;;;6098684;23;20018;-94
2022/02/23 11:26:20;;;;;;;2.53;2.28;;;;;;;;;;6077092;23;20057;-94
2022/02/23 11:29:02;;;;;;;3.05;1.73;;;;;;;;;;6122949;23;20022;-93
2022/02/23 11:31:32;;;;;;;3.13;2.20;;;;;;;;;;6103810;23;20037;-93
2022/02/23 11:34:02;;;;;;;3.20;2.25;;;;;;;;;;6098344;23;20003;-94
2022/02/23 11:36:42;;;;;;;4.95;3.00;;;;;;;;;;6122485;23;20002;-94
2022/02/23 11:39:09;;;;;;;;;;;;;;;;;;6098779;23;20010;-92
2022/02/23 11:41:46;;;;;;;4.70;3.28;;;;;;;;;;6122989;23;19916;-93
2022/02/23 11:50:04;;;;;;;4.40;2.70;;;;;;;;;;6155044;23;20025;-95
2022/02/23 11:52:45;;;;;;;5.03;3.03;;;;;;;;;;6171762;23;20013;-94
2022/02/23 11:55:11;;;;;;;5.75;3.45;;;;;;;;;;6164824;23;20455;-94
2022/02/23 11:57:42;;;;;;;4.22;2.90;;;;;;;;;;6163553;23;20005;-93
2022/02/23 12:00:13;;;;;;;2.80;2.38;;;;;;;;;;6156904;23;20380;-94
2022/02/23 12:02:40;;;;;;;2.80;2.30;;;;;;;;;;6158048;23;20037;-93
2022/02/23 12:05:07;;;;;;;3.47;2.33;;;;;;;;;;6157701;23;20318;-94
2022/02/23 12:07:49;;;;;;;3.38;2.53;;;;;;;;;;6157326;23;20012;-93
2022/02/23 12:10:15;;;;;;;4.97;2.40;;;;;;;;;;6156800;23;20442;-94
2022/02/23 12:12:42;;;;;;;3.08;2.22;;;;;;;;;;6156644;23;20005;-95
2022/02/23 12:15:23;;;;;;;3.17;2.60;;;;;;;;;;6156967;23;20421;-95
2022/02/23 12:17:54;;;;;;;3.10;2.20;;;;;;;;;;6156944;23;19998;-93
2022/02/23 12:20:35;;;;;;;3.58;2.65;;;;;;;;;;6157193;23;20010;-93
2022/02/23 12:23:12;;;;;;;4.90;2.50;;;;;;;;;;6156752;23;20097;-95
2022/02/23 12:25:50;;;;;;;7.40;2.42;;;;;;;;;;6157602;23;20001;-94
2022/02/23 12:28:17;;;;;;;3.47;2.65;;;;;;;;;;6156944;23;20084;-94
2022/02/23 12:31:04;;;;;;;4.25;2.50;;;;;;;;;;6157198;23;20088;-95
2022/02/23 12:33:31;;;;;;;4.95;2.35;;;;;;;;;;6163925;23;20012;-94
2022/02/23 12:35:59;;;;;;;3.75;2.28;;;;;;;;;;6157873;23;20005;-95
2022/02/23 12:38:32;;;;;;;2.92;2.05;;;;;;;;;;6160390;23;20005;-95
2022/02/23 12:40:59;;;;;;;3.55;2.13;;;;;;;;;;6157793;23;20031;-95
2022/02/23 12:43:24;;;;;;;2.35;1.80;;;;;;;;;;6157159;23;20005;-94
2022/02/23 12:45:53;;;;;;;4.35;2.10;;;;;;;;;;6157553;23;20017;-94
2022/02/23 18:02:03;;;;;;;9.35;6.85;;;;;;;;;;6190621;23;20017;-94
2022/02/23 18:04:28;;;;;;;13.73;10.73;;;;;;;;;;6190533;23;20013;-90
2022/02/23 18:06:54;;;;;;;9.38;6.50;;;;;;;;;;6192349;23;20310;-91
2022/02/23 18:09:20;;;;;;;8.88;6.60;;;;;;;;;;6187919;23;20009;-96
2022/02/23 18:11:48;;;;;;;8.30;6.43;;;;;;;;;;6167768;23;20005;-96
2022/02/23 18:14:15;;;;;;;7.13;4.37;;;;;;;;;;6168351;23;20081;-96
2022/02/23 18:16:41;;;;;;;5.10;4.13;;;;;;;;;;6162477;23;20005;-93
2022/02/23 18:19:07;;;;;;;6.75;4.32;;;;;;;;;;6167639;23;20010;-96
2022/02/23 18:21:35;;;;;;;5.35;4.10;;;;;;;;;;6165612;23;20021;-96
2022/02/23 18:24:01;;;;;;;6.45;4.65;;;;;;;;;;6163201;23;20013;-96
2022/02/23 18:27:10;;;;;;;6.97;3.83;;;;;;;;;;6177703;23;20009;-94
2022/02/23 18:30:12;;;;;;;4.80;3.40;;;;;;;;;;6184643;23;20005;-94
2022/02/23 18:32:39;;;;;;;7.10;2.90;;;;;;;;;;6178681;23;20036;-95
2022/02/23 18:35:07;;;;;;;5.32;3.08;;;;;;;;;;6153300;23;20005;-96
2022/02/23 18:37:35;;;;;;;4.85;3.40;;;;;;;;;;6179241;23;20001;-95
2022/02/23 18:40:00;;;;;;;4.95;3.10;;;;;;;;;;6178745;23;20013;-96
2022/02/23 18:42:26;;;;;;;3.80;2.55;;;;;;;;;;6177316;23;20089;-94
2022/02/23 18:44:52;;;;;;;3.95;3.03;;;;;;;;;;6172431;23;20032;-96
2022/02/23 18:47:18;;;;;;;3.97;2.92;;;;;;;;;;6173065;23;20001;-96
2022/02/23 18:49:51;;;;;;;4.15;2.88;;;;;;;;;;6174933;23;20044;-96
2022/02/23 18:52:17;;;;;;;6.55;2.70;;;;;;;;;;6166381;23;20005;-96
2022/02/23 18:54:43;;;;;;;3.78;2.97;;;;;;;;;;6200416;23;19997;-95
2022/02/23 18:57:08;;;;;;;3.03;2.72;;;;;;;;;;6168119;23;20005;-92
2022/02/23 18:59:34;;;;;;;3.05;2.70;;;;;;;;;;6165286;23;20009;-92
2022/02/23 19:02:00;;;;;;;7.45;3.53;;;;;;;;;;6168949;23;20012;-95
2022/02/23 19:04:26;;;;;;;4.65;3.03;;;;;;;;;;6167583;23;20011;-95
2022/02/23 19:06:53;;;;;;;8.68;5.65;;;;;;;;;;6169607;23;20001;-94
2022/02/23 19:09:19;;;;;;;7.95;6.20;;;;;;;;;;6170370;23;20340;-92
2022/02/23 19:11:45;;;;;;;8.23;5.47;;;;;;;;;;6164426;23;20005;-94
2022/02/23 19:14:11;;;;;;;8.98;6.40;;;;;;;;;;6164665;23;20009;-94
2022/02/23 19:16:36;;;;;;;10.82;6.70;;;;;;;;;;6163753;23;20452;-96
2022/02/23 19:19:03;;;;;;;7.72;6.07;;;;;;;;;;6164722;23;20009;-96
2022/02/23 19:21:45;;;;;;;9.07;6.50;;;;;;;;;;6164152;23;20012;-94
2022/02/23 19:24:10;;;;;;;11.02;6.45;;;;;;;;;;6187097;23;20036;-96
2022/02/23 19:26:36;;;;;;;8.63;6.40;;;;;;;;;;6164829;23;20017;-91
2022/02/23 19:29:02;;;;;;;11.57;8.55;;;;;;;;;;6163884;23;20044;-93
2022/02/23 19:31:30;;;;;;;20.15;12.85;;;;;;;;;;6167625;23;20468;-95
2022/02/23 19:33:56;;;;;;;24.70;19.33;;;;;;;;;;6172473;23;20005;-96
2022/02/23 19:36:21;;;;;;;10.00;6.57;;;;;;;;;;6164619;23;20059;-94
2022/02/23 19:38:48;;;;;;;10.40;6.55;;;;;;;;;;6162872;23;20005;-96
2022/02/23 19:41:13;;;;;;;8.10;6.65;;;;;;;;;;6161984;23;20001;-93
2022/02/23 19:43:39;;;;;;;8.52;5.60;;;;;;;;;;6161533;23;20016;-96
2022/02/23 19:46:05;;;;;;;9.27;6.10;;;;;;;;;;6161924;23;20337;-96
2022/02/23 19:48:30;;;;;;;8.38;5.28;;;;;;;;;;6161456;23;20012;-95
2022/02/23 19:50:56;;;;;;;9.90;6.10;;;;;;;;;;6165717;23;20005;-96
2022/02/23 19:53:22;;;;;;;8.13;4.65;;;;;;;;;;6170278;23;20020;-96
2022/02/23 19:55:50;;;;;;;6.28;4.68;;;;;;;;;;6163080;23;20004;-96
2022/02/23 19:58:24;;;;;;;5.28;4.60;;;;;;;;;;6171753;23;20028;-96
2022/02/23 20:00:56;;;;;;;7.20;4.05;;;;;;;;;;6171359;23;20065;-95
2022/02/23 20:03:42;;;;;;;5.53;4.28;;;;;;;;;;6174273;23;20072;-96
2022/02/23 20:06:08;;;;;;;6.68;5.05;;;;;;;;;;6165608;23;20016;-96
2022/02/23 20:08:33;;;;;;;12.23;8.95;;;;;;;;;;6172216;23;20409;-96
2022/02/23 20:10:59;;;;;;;7.18;6.07;;;;;;;;;;6163888;23;20015;-96
2022/02/23 20:13:27;;;;;;;7.90;5.88;;;;;;;;;;6163044;23;20005;-96
2022/02/23 20:15:53;;;;;;;6.45;5.38;;;;;;;;;;6164169;23;20006;-96
2022/02/23 20:18:19;;;;;;;6.43;4.97;;;;;;;;;;6162379;23;20004;-96
2022/02/23 20:20:46;;;;;;;7.72;5.22;;;;;;;;;;6165712;23;20016;-96
2022/02/23 20:23:11;;;;;;;7.57;5.18;;;;;;;;;;6165114;23;20012;-96
2022/02/23 20:25:37;;;;;;;8.50;5.60;;;;;;;;;;6163135;23;20435;-92
2022/02/23 20:28:03;;;;;;;5.95;5.07;;;;;;;;;;6161692;23;20005;-96
2022/02/23 20:30:29;;;;;;;10.20;5.85;;;;;;;;;;6162729;23;20048;-96
2022/02/23 20:32:56;;;;;;;9.80;4.97;;;;;;;;;;6162323;23;20043;-93
2022/02/23 20:35:23;;;;;;;6.43;4.78;;;;;;;;;;6161468;23;20384;-96
2022/02/23 20:37:49;;;;;;;7.40;5.47;;;;;;;;;;6163969;23;20033;-93
2022/02/23 20:40:16;;;;;;;7.60;5.38;;;;;;;;;;6187709;23;20008;-93
2022/02/23 20:42:43;;;;;;;7.35;5.40;;;;;;;;;;6160964;23;20428;-94
2022/02/23 20:45:10;;;;;;;7.10;5.15;;;;;;;;;;6160976;23;20005;-92
2022/02/23 20:47:35;;;;;;;7.68;5.43;;;;;;;;;;6160796;23;20375;-94
2022/02/23 20:50:03;;;;;;;9.68;5.97;;;;;;;;;;6162031;23;20005;-94
2022/02/23 20:52:28;;;;;;;8.00;5.03;;;;;;;;;;6160711;23;20009;-93
2022/02/23 20:54:54;;;;;;;7.32;5.78;;;;;;;;;;6161043;23;20020;-94
2022/02/23 20:57:24;;;;;;;4.50;3.85;;;;;;;;;;6160926;23;20083;-93
2022/02/23 20:59:51;;;;;;;6.40;3.88;;;;;;;;;;6161321;23;20375;-94
2022/02/23 21:02:16;;;;;;;5.03;3.75;;;;;;;;;;6162185;23;20052;-92
2022/02/23 21:04:42;;;;;;;5.47;4.13;;;;;;;;;;6160961;23;20413;-94
2022/02/23 21:07:08;;;;;;;5.80;4.82;;;;;;;;;;6161178;23;20009;-92
2022/02/23 21:09:33;;;;;;;10.48;5.35;;;;;;;;;;6161285;23;20490;-92
2022/02/23 21:11:59;;;;;;;6.07;4.93;;;;;;;;;;6160674;23;20036;-96
2022/02/23 21:14:25;;;;;;;6.75;5.25;;;;;;;;;;6161711;23;20017;-96
2022/02/23 21:16:50;;;;;;;6.85;4.70;;;;;;;;;;6161996;23;20001;-96
2022/02/23 21:19:16;;;;;;;7.53;5.28;;;;;;;;;;6159859;23;20005;-90
2022/02/23 21:21:43;;;;;;;6.38;5.47;;;;;;;;;;6161697;23;20016;-90
2022/02/23 21:24:09;;;;;;;8.85;5.45;;;;;;;;;;6161558;23;20013;-91
2022/02/23 21:26:34;;;;;;;10.43;6.45;;;;;;;;;;6163736;23;20005;-91
2022/02/23 21:29:00;;;;;;;8.77;6.22;;;;;;;;;;6189636;23;20036;-95
2022/02/23 21:31:25;;;;;;;9.30;6.13;;;;;;;;;;6172937;23;20328;-96
2022/02/23 21:33:51;;;;;;;7.63;5.55;;;;;;;;;;6164056;23;20009;-95
2022/02/23 21:36:32;;;;;;;8.20;6.18;;;;;;;;;;6162874;23;20039;-91
2022/02/23 21:38:59;;;;;;;10.20;6.50;;;;;;;;;;6162790;23;20013;-96
2022/02/23 21:41:24;;;;;;;8.43;6.35;;;;;;;;;;6191161;23;20421;-95
2022/02/23 21:43:50;;;;;;;14.98;8.40;;;;;;;;;;6163197;23;20009;-91
2022/02/23 21:46:15;;;;;;;11.18;8.07;;;;;;;;;;6162788;23;20328;-93
2022/02/23 21:48:41;;;;;;;8.63;7.30;;;;;;;;;;6162440;23;20044;-96
2022/02/23 21:51:07;;;;;;;11.85;6.68;;;;;;;;;;6162897;23;20353;-96
2022/02/23 21:53:32;;;;;;;12.38;6.85;;;;;;;;;;6162725;23;20009;-91
2022/02/23 21:55:58;;;;;;;9.77;7.05;;;;;;;;;;6187203;23;20005;-96
2022/02/23 21:58:23;;;;;;;11.77;7.75;;;;;;;;;;6189422;23;20008;-94
2022/02/23 22:00:49;;;;;;;13.45;9.25;;;;;;;;;;6162930;23;20012;-95
2022/02/23 22:03:14;;;;;;;12.05;9.13;;;;;;;;;;6163111;23;20009;-90
2022/02/23 22:05:40;;;;;;;12.25;8.07;;;;;;;;;;6162843;23;20009;-94
2022/02/23 22:08:06;;;;;;;11.65;6.30;;;;;;;;;;6162680;23;20051;-96
2022/02/23 22:10:32;;;;;;;7.97;5.72;;;;;;;;;;6163376;23;20033;-95
2022/02/23 22:12:58;;;;;;;9.27;5.90;;;;;;;;;;6190013;23;20009;-96
2022/02/23 22:15:24;;;;;;;9.82;5.53;;;;;;;;;;6189235;23;20005;-95
2022/02/23 22:17:50;;;;;;;9.63;5.32;;;;;;;;;;6164353;23;20008;-93
2022/02/23 22:20:16;;;;;;;8.35;5.97;;;;;;;;;;6165084;23;20004;-96
2022/02/23 22:22:41;;;;;;;9.77;6.78;;;;;;;;;;6189827;23;20056;-95
2022/02/23 22:25:07;;;;;;;11.05;7.00;;;;;;;;;;6179435;23;20012;-96
2022/02/23 22:27:32;;;;;;;11.73;6.95;;;;;;;;;;6214491;23;20001;-92
2022/02/23 22:29:58;;;;;;;11.45;7.70;;;;;;;;;;6189206;23;20028;-95
2022/02/23 22:32:23;;;;;;;12.63;7.65;;;;;;;;;;6209875;23;19999;-93
2022/02/23 22:34:49;;;;;;;10.98;8.75;;;;;;;;;;6187029;23;20011;-88
2022/02/23 22:37:14;;;;;;;11.48;8.27;;;;;;;;;;6211550;23;19997;-94
2022/02/23 22:39:40;;;;;;;14.52;9.77;;;;;;;;;;6177828;23;20033;-90
2022/02/23 22:42:05;;;;;;;17.25;9.45;;;;;;;;;;6180034;23;20001;-94
2022/02/23 22:44:30;;;;;;;17.77;9.48;;;;;;;;;;6189879;23;20005;-93
2022/02/23 22:46:56;;;;;;;11.95;8.32;;;;;;;;;;6184459;23;20052;-96
2022/02/23 22:49:21;;;;;;;12.25;8.65;;;;;;;;;;6182553;23;20067;-88
2022/02/23 22:51:52;;;;;;;14.05;7.82;;;;;;;;;;6183747;23;20028;-91
2022/02/23 22:54:17;;;;;;;12.98;8.40;;;;;;;;;;6183845;23;20013;-94
2022/02/23 22:56:43;;;;;;;13.43;8.93;;;;;;;;;;6189925;23;20028;-94
2022/02/23 22:59:09;;;;;;;15.50;9.10;;;;;;;;;;6204822;23;19996;-94
2022/02/23 23:01:35;;;;;;;11.95;8.50;;;;;;;;;;6193726;23;20027;-95
2022/02/23 23:04:01;;;;;;;12.25;9.05;;;;;;;;;;6188944;23;20009;-95
2022/02/23 23:06:29;;;;;;;13.10;9.85;;;;;;;;;;6163303;23;20498;-96
2022/02/23 23:08:55;;;;;;;12.43;8.20;;;;;;;;;;6165894;23;20009;-95
2022/02/23 23:11:23;;;;;;;7.70;6.32;;;;;;;;;;6165263;23;20005;-96
2022/02/23 23:14:18;;;;;;;12.10;7.30;;;;;;;;;;6164599;23;20069;-95
2022/02/23 23:16:43;;;;;;;10.05;7.28;;;;;;;;;;6150051;23;20009;-96
2022/02/23 23:19:09;;;;;;;10.45;7.20;;;;;;;;;;6163572;23;20433;-96
2022/02/23 23:21:36;;;;;;;9.23;7.20;;;;;;;;;;6162978;23;20016;-93
2022/02/23 23:24:03;;;;;;;11.63;7.47;;;;;;;;;;6162053;23;20009;-94
2022/02/23 23:26:29;;;;;;;9.52;7.20;;;;;;;;;;6162469;23;20005;-95
2022/02/23 23:28:54;;;;;;;11.88;7.10;;;;;;;;;;6188462;23;20019;-92
2022/02/23 23:31:20;;;;;;;13.07;7.30;;;;;;;;;;6161974;23;20380;-92
2022/02/23 23:33:50;;;;;;;10.55;7.32;;;;;;;;;;6161695;23;20012;-95
2022/02/23 23:36:19;;;;;;;13.32;8.57;;;;;;;;;;6162153;23;20001;-96
2022/02/23 23:38:46;;;;;;;12.70;8.50;;;;;;;;;;6162955;23;20005;-94
2022/02/23 23:41:11;;;;;;;8.82;5.93;;;;;;;;;;6161931;23;20496;-94
2022/02/23 23:43:37;;;;;;;9.15;6.35;;;;;;;;;;6161889;23;20009;-96
2022/02/23 23:46:02;;;;;;;9.70;6.85;;;;;;;;;;6161396;23;20088;-91
2022/02/23 23:48:28;;;;;;;9.35;6.43;;;;;;;;;;6162153;23;20005;-94
2022/02/23 23:50:54;;;;;;;11.63;7.50;;;;;;;;;;6189448;23;20001;-95
